Latest Weather Observations for Dalby

IDQ60801

Issued at 7:02 pm EST Thursday 19 October 2017 (issued every 30 minutes, with the page automatically refreshed every 10 minutes)

About weather observations | Map of weather stations | Latest weather observations for QLD | Other Formats
Station Details ID: 041522 Name: DALBY AIRPORT Lat: -27.16 Lon: 151.26 Height: 343.9 m
Data from the previous 72 hours. | See also: Recent months at Dalby
Date/Time
EST
Temp
°C
App
Temp
°C
Dew
Point
°C
Rel
Hum
%
Delta-T
°C
Wind Press
QNH
hPa
Press
MSL
hPa
Rain since
9am
mm
Dir  Spd
km/h
Gust
km/h
Spd
kts
Gust
kts
19/07:00pm 19.9 17.5 13.8 68 3.5 ENE 19 30 10 16 1023.4 1022.2 0.0
19/06:30pm 20.1 16.6 13.3 65 3.9 ENE 24 32 13 17 1023.1 1021.9 0.0
19/06:00pm 21.0 16.9 12.7 59 4.8 ENE 26 37 14 20 1022.7 1021.5 0.0
19/05:30pm 22.3 18.1 13.4 57 5.2 ENE 28 37 15 20 1022.1 1020.8 0.0
19/05:00pm 23.4 19.0 13.0 52 6.1 E 28 35 15 19 1021.9 1020.6 0.0
19/04:30pm 24.2 19.5 13.1 50 6.5 ENE 30 37 16 20 1021.8 1020.5 0.0
19/04:00pm 24.2 19.4 14.6 55 5.8 E 33 44 18 24 1021.7 1020.4 0.0
19/03:30pm 24.0 19.2 14.1 54 5.9 E 32 44 17 24 1021.7 1020.4 0.0
19/03:00pm 24.6 20.3 14.4 53 6.1 E 30 39 16 21 1021.9 1020.6 0.0
19/02:30pm 25.4 20.3 14.8 52 6.4 E 35 43 19 23 1022.1 1020.8 0.0
19/02:00pm 24.0 19.9 13.8 53 6.0 E 28 35 15 19 1022.5 1021.2 0.0
19/01:30pm 24.9 22.0 15.2 54 5.9 E 24 32 13 17 1022.8 1021.6 0.0
19/01:00pm 24.9 21.4 14.4 52 6.3 ENE 26 35 14 19 1023.1 1021.9 0.0
19/12:30pm 24.3 19.6 14.4 54 6.0 E 32 39 17 21 1023.4 1022.2 0.0
19/12:00pm 22.9 18.3 14.5 59 5.0 ENE 32 39 17 21 1023.7 1022.5 0.0
19/11:30am 23.1 18.2 13.8 55 5.5 E 32 39 17 21 1023.9 1022.7 0.0
19/11:00am 23.0 18.2 14.0 57 5.3 E 32 39 17 21 1024.1 1022.8 0.0
19/10:30am 22.5 18.2 14.4 60 4.8 E 30 43 16 23 1024.4 1023.1 0.0
19/10:00am 22.7 18.4 15.3 63 4.5 ENE 32 41 17 22 1024.8 1023.5 0.0
19/09:30am 21.0 16.3 14.2 65 4.0 E 32 43 17 23 1024.9 1023.6 0.0
19/09:00am 20.4 15.3 13.6 65 3.9 ENE 33 43 18 23 1025.1 1023.8 0.0
19/08:30am 20.0 14.7 13.2 65 3.9 E 33 43 18 23 1025.2 1023.9 0.0
19/08:00am 19.6 13.7 13.5 68 3.5 E 37 46 20 25 1025.0 1023.7 0.0
19/07:30am 19.0 13.9 13.6 71 3.1 E 33 43 18 23 1024.9 1023.6 0.0
19/07:00am 18.8 14.8 14.1 74 2.7 E 28 39 15 21 1024.7 1023.4 0.0
19/06:30am 17.6 15.2 13.7 78 2.2 ESE 19 24 10 13 1024.5 1023.2 0.0
19/06:00am 16.5 14.3 13.4 82 1.8 ESE 17 22 9 12 1024.4 1023.1 0.0
19/05:30am 16.2 13.9 13.1 82 1.8 ESE 17 20 9 11 1024.2 1022.9 0.0
19/05:00am 16.7 13.5 13.2 80 2.0 E 22 30 12 16 1023.9 1022.7 0.0
19/04:30am 17.0 13.9 13.5 80 2.0 E 22 26 12 14 1023.7 1022.5 0.0
19/04:00am 17.0 14.3 13.5 80 2.0 E 20 28 11 15 1023.8 1022.6 0.0
19/03:30am 17.1 14.6 13.6 80 2.0 E 19 22 10 12 1023.5 1022.3 0.0
19/03:00am 17.6 14.6 13.7 78 2.2 E 22 30 12 16 1023.4 1022.2 0.0
19/02:30am 17.6 14.2 13.7 78 2.2 E 24 30 13 16 1023.4 1022.2 0.0
19/02:00am 17.9 14.2 13.8 77 2.4 E 26 39 14 21 1023.6 1022.4 0.0
19/01:30am 17.8 14.1 13.9 78 2.3 E 26 37 14 20 1023.8 1022.6 0.0
19/01:00am 17.8 13.7 13.9 78 2.2 E 28 33 15 18 1024.1 1022.8 0.0
19/12:30am 17.9 15.1 14.2 79 2.2 E 22 30 12 16 1024.4 1023.1 0.0
19/12:00am 17.9 15.5 14.4 80 2.0 E 20 30 11 16 1024.7 1023.4 0.0
 
Date/Time
EST
Temp
°C
App
Temp
°C
Dew
Point
°C
Rel
Hum
%
Delta-T
°C
Wind Press
QNH
hPa
Press
MSL
hPa
Rain since
9am
mm
Dir  Spd
km/h
Gust
km/h
Spd
kts
Gust
kts
18/11:30pm 18.0 14.1 14.3 79 2.2 E 28 43 15 23 1025.0 1023.7 0.0
18/11:00pm 18.2 14.3 14.3 78 2.3 E 28 41 15 22 1025.0 1023.7 0.0
18/10:30pm 18.2 15.1 14.5 79 2.2 E 24 32 13 17 1025.1 1023.8 0.0
18/10:00pm 18.3 14.8 14.4 78 2.3 E 26 37 14 20 1025.2 1023.9 0.0
18/09:30pm 18.2 16.2 14.9 81 1.9 ESE 19 24 10 13 1025.1 1023.8 0.0
18/09:00pm 18.2 16.1 14.7 80 2.1 ESE 19 24 10 13 1024.9 1023.6 0.0
18/08:30pm 18.3 14.8 14.6 79 2.2 E 26 37 14 20 1024.6 1023.3 0.0
18/08:00pm 18.6 14.7 14.5 77 2.4 E 28 35 15 19 1024.2 1022.9 0.0
18/07:30pm 18.9 15.0 14.4 75 2.6 E 28 35 15 19 1023.8 1022.6 0.0
18/07:00pm 19.0 14.6 14.1 73 2.9 E 30 41 16 22 1023.5 1022.3 0.0
18/06:30pm 19.1 15.8 13.9 72 3.0 ESE 24 33 13 18 1023.2 1022.0 0.0
18/06:00pm 19.2 15.2 14.0 72 3.0 ESE 28 35 15 19 1022.9 1021.7 0.0
18/05:30pm 19.7 15.3 14.1 70 3.3 E 30 41 16 22 1022.5 1021.2 0.0
18/05:00pm 20.1 14.7 13.8 67 3.7 E 35 46 19 25 1022.4 1021.1 0.0
18/04:30pm 20.9 15.4 14.8 68 3.6 E 37 52 20 28 1022.0 1020.7 0.0
18/04:00pm 20.7 14.4 14.6 68 3.6 E 41 54 22 29 1021.7 1020.4 0.0
18/03:30pm 21.3 16.6 14.9 67 3.8 E 33 44 18 24 1021.4 1020.1 0.0
18/03:00pm 21.9 17.1 15.5 67 3.9 E 35 44 19 24 1021.5 1020.2 0.0
18/02:30pm 22.1 17.7 15.2 65 4.2 E 32 48 17 26 1021.8 1020.5 0.0
18/02:00pm 21.2 15.0 14.8 67 3.8 E 41 52 22 28 1022.1 1020.8 0.0
18/01:30pm 21.3 15.6 15.2 68 3.7 E 39 50 21 27 1022.2 1020.9 0.0
18/01:00pm 22.3 16.6 15.2 64 4.3 E 39 56 21 30 1022.5 1021.2 0.0
18/12:53pm 22.9 17.3 15.5 63 4.5 E 39 57 21 31 1022.5 1021.2 0.0
18/12:30pm 22.3 16.2 15.2 64 4.3 ESE 41 57 22 31 1022.5 1021.2 0.0
18/12:00pm 22.8 17.2 16.4 67 3.9 E 41 52 22 28 1022.7 1021.5 0.0
18/11:30am 21.8 15.6 14.9 65 4.1 E 41 54 22 29 1022.9 1021.7 0.0
18/11:00am 21.6 14.9 14.7 65 4.1 E 43 54 23 29 1023.1 1021.9 0.0
18/10:30am 22.2 15.3 15.5 66 4.1 E 46 57 25 31 1023.2 1022.0 0.0
18/10:16am 21.2 14.5 14.6 66 3.9 E 43 61 23 33 1023.3 1022.1 0.0
18/10:00am 22.9 16.2 16.2 66 4.1 E 46 57 25 31 1023.1 1021.9 0.0
18/09:30am 22.1 15.7 15.5 66 4.0 E 43 61 23 33 1023.1 1021.9 0.0
18/09:28am 21.9 15.5 15.3 66 4.0 E 43 61 23 33 1023.0 1021.8 0.0
18/09:00am 20.9 15.5 15.0 69 3.5 ESE 37 48 20 26 1023.2 1022.0 0.0
18/08:30am 20.3 14.1 14.9 71 3.2 E 41 50 22 27 1022.7 1021.5 0.0
18/08:00am 19.6 14.9 14.8 74 2.8 ESE 33 50 18 27 1022.6 1021.3 0.0
18/07:30am 19.1 16.5 15.0 77 2.4 ESE 22 35 12 19 1022.5 1021.2 0.0
18/07:00am 18.1 14.6 14.4 79 2.2 ESE 26 39 14 21 1021.9 1020.6 0.0
18/06:30am 17.6 14.3 14.1 80 2.0 ESE 24 33 13 18 1021.7 1020.4 0.0
18/06:00am 17.2 13.1 13.9 81 1.9 SE 28 35 15 19 1021.3 1020.0 0.0
18/05:30am 17.1 13.0 13.8 81 1.9 ESE 28 35 15 19 1021.1 1019.8 0.0
18/05:00am 17.1 12.6 13.8 81 1.9 ESE 30 39 16 21 1020.5 1019.3 0.0
18/04:30am 17.1 13.1 14.0 82 1.8 ESE 28 37 15 20 1020.4 1019.2 0.0
18/04:00am 17.1 13.0 13.8 81 1.9 ESE 28 39 15 21 1020.4 1019.2 0.0
18/03:30am 17.0 12.2 13.9 82 1.8 ESE 32 43 17 23 1019.9 1018.6 0.0
18/03:00am 17.1 12.6 13.8 81 1.9 ESE 30 41 16 22 1020.0 1018.7 0.0
18/02:30am 17.3 12.4 13.8 80 2.0 ESE 32 37 17 20 1020.0 1018.7 0.0
18/02:00am 17.6 13.5 13.9 79 2.1 ESE 28 37 15 20 1020.4 1019.2 0.0
18/01:30am 17.4 14.6 14.3 82 1.8 SE 22 28 12 15 1021.0 1019.7 0.0
18/01:00am 17.4 15.5 14.1 81 1.9 SE 17 22 9 12 1021.3 1020.0 0.0
18/12:30am 17.5 14.3 14.2 81 1.9 ESE 24 32 13 17 1021.2 1019.9 0.0
18/12:00am 17.7 13.7 14.2 80 2.0 ESE 28 37 15 20 1021.4 1020.1 0.0
 
Date/Time
EST
Temp
°C
App
Temp
°C
Dew
Point
°C
Rel
Hum
%
Delta-T
°C
Wind Press
QNH
hPa
Press
MSL
hPa
Rain since
9am
mm
Dir  Spd
km/h
Gust
km/h
Spd
kts
Gust
kts
17/11:30pm 17.7 13.0 14.2 80 2.0 ESE 32 39 17 21 1021.4 1020.1 0.0
17/11:00pm 17.9 12.6 14.2 79 2.1 ESE 35 46 19 25 1021.6 1020.3 0.0
17/10:30pm 17.9 13.2 14.4 80 2.0 ESE 32 41 17 22 1021.8 1020.5 0.0
17/10:00pm 18.0 13.7 14.5 80 2.0 ESE 30 43 16 23 1021.9 1020.6 0.0
17/09:30pm 18.0 13.2 14.5 80 2.1 ESE 33 48 18 26 1021.9 1020.6 0.0
17/09:00pm 18.2 13.4 14.5 79 2.2 ESE 33 43 18 23 1021.7 1020.4 0.0
17/08:30pm 18.1 14.0 14.8 81 1.9 ESE 30 43 16 23 1021.3 1020.0 0.0
17/08:00pm 17.9 14.5 14.8 82 1.8 ESE 26 37 14 20 1021.2 1019.9 0.0
17/07:30pm 18.2 14.9 14.9 81 1.9 ESE 26 35 14 19 1021.2 1019.9 0.0
17/07:00pm 18.1 14.4 15.0 82 1.8 ESE 28 33 15 18 1020.7 1019.5 0.0
17/06:30pm 18.2 14.2 15.1 82 1.8 ESE 30 39 16 21 1020.2 1019.0 0.0
17/06:00pm 18.8 14.4 15.1 79 2.2 ESE 32 43 17 23 1020.0 1018.7 0.0
17/05:30pm 18.8 15.1 15.1 79 2.2 ESE 28 39 15 21 1019.7 1018.4 0.0
17/05:00pm 19.3 14.7 15.2 77 2.4 ESE 33 44 18 24 1019.4 1018.1 0.0
17/04:30pm 19.7 14.6 14.9 74 2.9 ESE 35 46 19 25 1019.3 1018.0 0.0
17/04:00pm 20.3 15.2 14.7 70 3.3 ESE 35 50 19 27 1018.8 1017.5 0.0
17/03:30pm 20.8 14.0 14.7 68 3.6 ESE 44 57 24 31 1018.3 1017.0 0.0
17/03:00pm 21.8 14.8 15.4 67 3.9 E 46 59 25 32 1018.5 1017.2 0.0
17/02:30pm 21.6 14.8 14.7 65 4.1 E 44 61 24 33 1018.4 1017.1 0.0
17/02:00pm 21.7 14.4 14.6 64 4.2 E 46 57 25 31 1018.1 1016.8 0.0
17/01:30pm 22.0 17.0 16.1 69 3.6 E 37 46 20 25 1018.5 1017.2 0.0
17/01:00pm 21.2 14.7 15.1 68 3.7 ESE 43 54 23 29 1018.7 1017.4 0.0
17/12:30pm 21.3 14.1 14.7 66 3.9 E 46 59 25 32 1019.1 1017.8 0.0
17/12:00pm 20.6 14.6 15.4 72 3.1 ESE 41 52 22 28 1019.5 1018.2 0.0
17/11:30am 18.9 14.7 15.6 81 2.0 ESE 32 43 17 23 1020.0 1018.7 0.0
17/11:00am 19.5 14.2 15.4 77 2.5 ESE 37 48 20 26 1020.2 1019.0 0.0
17/10:30am 19.0 15.4 15.3 79 2.2 ESE 28 35 15 19 1020.4 1019.2 0.0
17/10:00am 18.3 13.0 15.2 82 1.8 ESE 37 48 20 26 1020.6 1019.4 0.0
17/09:30am 19.6 14.6 15.0 75 2.7 ESE 35 57 19 31 1020.4 1019.2 0.0
17/09:25am 19.6 14.8 14.6 73 3.0 ESE 33 52 18 28 1020.5 1019.3 0.0
17/09:00am 18.3 13.7 14.6 79 2.2 SE 32 46 17 25 1020.6 1019.4 5.2
17/08:30am 18.7 14.4 14.4 76 2.5 ESE 30 41 16 22 1020.4 1019.2 5.2
17/08:00am 18.0 14.2 14.7 81 1.9 ESE 28 39 15 21 1020.1 1018.8 5.2
17/07:30am 17.7 13.8 14.4 81 1.9 ESE 28 35 15 19 1019.8 1018.5 5.2
17/07:00am 17.6 13.5 13.9 79 2.1 SE 28 37 15 20 1019.5 1018.2 5.2
17/06:30am 17.4 13.4 12.9 75 2.6 ESE 26 33 14 18 1018.9 1017.6 5.2
17/06:00am 17.3 11.8 12.6 74 2.6 ESE 33 41 18 22 1018.6 1017.3 5.2
17/05:30am 17.3 12.0 13.0 76 2.4 ESE 33 44 18 24 1017.6 1016.4 5.2
17/05:00am 16.9 12.1 13.0 78 2.2 ESE 30 35 16 19 1017.5 1016.2 5.2
17/04:30am 17.0 12.7 13.1 78 2.2 ESE 28 37 15 20 1017.5 1016.2 5.2
17/04:00am 17.2 12.5 13.3 78 2.2 ESE 30 43 16 23 1017.4 1016.1 5.2
17/03:30am 17.1 12.9 13.6 80 2.0 ESE 28 37 15 20 1017.5 1016.2 5.2
17/03:00am 16.9 13.1 13.6 81 1.9 ESE 26 33 14 18 1017.5 1016.2 5.2
17/02:30am 16.8 12.7 13.7 82 1.8 ESE 28 37 15 20 1017.7 1016.5 5.2
17/02:00am 17.2 11.7 13.5 79 2.1 ESE 35 48 19 26 1018.0 1016.7 5.2
17/01:52am 17.4 12.8 13.5 78 2.2 ESE 30 48 16 26 1018.1 1016.8 5.2
17/01:30am 17.0 14.0 13.7 81 1.9 ESE 22 28 12 15 1018.3 1017.0 5.2
17/01:00am 17.0 14.1 14.1 83 1.7 ESE 22 30 12 16 1018.7 1017.4 5.2
17/12:30am 17.1 13.2 14.4 84 1.6 ESE 28 35 15 19 1018.8 1017.5 5.2
17/12:00am 16.7 14.0 14.5 87 1.3 ESE 22 30 12 16 1019.2 1017.9 5.2
 
Date/Time
EST
Temp
°C
App
Temp
°C
Dew
Point
°C
Rel
Hum
%
Delta-T
°C
Wind Press
QNH
hPa
Press
MSL
hPa
Rain since
9am
mm
Dir  Spd
km/h
Gust
km/h
Spd
kts
Gust
kts
16/11:30pm 16.8 13.7 14.4 86 1.4 ESE 24 32 13 17 1019.7 1018.4 5.0
16/11:00pm 16.8 13.7 14.4 86 1.4 ESE 24 30 13 16 1019.8 1018.5 5.0
16/10:30pm 16.7 14.3 14.5 87 1.3 SE 20 26 11 14 1019.9 1018.6 4.8
16/10:00pm 16.5 14.6 14.3 87 1.3 ESE 17 20 9 11 1020.2 1019.0 4.8
16/09:30pm 16.5 14.6 14.2 86 1.3 ESE 17 19 9 10 1020.2 1019.0 4.6
16/09:00pm 16.5 14.2 14.2 86 1.3 SE 19 22 10 12 1020.1 1018.8 4.4
16/08:30pm 16.6 14.1 14.2 86 1.4 ESE 20 24 11 13 1020.1 1018.8 4.4
16/08:00pm 16.5 13.3 14.3 87 1.3 ESE 24 33 13 18 1020.0 1018.7 4.4
16/07:30pm 16.4 12.4 14.2 87 1.3 ESE 28 37 15 20 1019.7 1018.4 4.0

Other Formats:

Comma delimited format used in spreadsheet applications
http://www.bom.gov.au/fwo/IDQ60801/IDQ60801.94542.axf

JavaScript Object Notation format (JSON) in row-major order
http://www.bom.gov.au/fwo/IDQ60801/IDQ60801.94542.json